Terminal Aerodrome Forecast
Issued by NWS Bismarck, ND

Home | Current Version | Previous Version | Text Only | Print | Product List | Glossary Off
Versions: 1 2 3 4 5 6 7 8 9 10 11 12 13 14 15 16 17

000
FTUS43 KBIS 221127
TAFISN
TAF
KISN 221127Z 2212/2312 06004KT P6SM BKN200
     FM221700 10009KT P6SM BKN200
     FM230000 10014G20KT P6SM SCT140
     FM230300 11014G21KT P6SM -SHRA VCTS SCT090CB
     FM230600 12012KT P6SM BKN150
     FM231100 18007KT P6SM BKN045=

USA.gov is the U.S. government's official web portal to all federal, state and local government web resources and services.